createdAt,value
2023-10-23T00:04:01.436Z,11.71
2023-10-23T00:09:11.272Z,11.71
2023-10-23T00:14:21.276Z,11.72
2023-10-23T00:19:31.065Z,11.71
2023-10-23T00:24:41.027Z,11.71
2023-10-23T00:29:50.872Z,11.73
2023-10-23T00:35:00.844Z,11.73
2023-10-23T00:40:13.057Z,11.73
2023-10-23T00:45:23.187Z,11.73
2023-10-23T00:50:33.099Z,11.74
2023-10-23T00:55:44.039Z,11.75
2023-10-23T01:00:55.442Z,11.75
2023-10-23T01:06:05.749Z,11.76
2023-10-23T01:11:15.911Z,11.76
2023-10-23T01:16:26.087Z,11.76
2023-10-23T01:21:35.817Z,11.77
2023-10-23T01:26:45.533Z,11.79
2023-10-23T01:31:55.269Z,11.80
2023-10-23T01:37:05.112Z,11.81
2023-10-23T01:42:14.951Z,11.81
2023-10-23T01:47:24.631Z,11.82
2023-10-23T01:52:34.394Z,11.82
2023-10-23T01:57:44.109Z,11.80
2023-10-23T02:02:53.890Z,11.79
2023-10-23T02:08:03.907Z,11.80
2023-10-23T02:13:13.524Z,11.79
2023-10-23T02:18:23.603Z,11.77
2023-10-23T02:23:48.829Z,11.76
2023-10-23T02:29:03.263Z,11.72
2023-10-23T02:34:13.229Z,11.71
2023-10-23T02:39:23.104Z,11.70
2023-10-23T02:44:32.770Z,11.67
2023-10-23T02:49:42.305Z,11.63
2023-10-23T02:54:53.589Z,11.61
2023-10-23T03:00:06.962Z,11.60
2023-10-23T03:05:16.763Z,11.59
2023-10-23T03:10:26.398Z,11.58
2023-10-23T03:15:37.409Z,11.55
2023-10-23T03:20:47.232Z,11.50
2023-10-23T03:25:57.854Z,11.45
2023-10-23T03:31:08.182Z,11.41
2023-10-23T03:36:18.648Z,11.37
2023-10-23T03:41:28.468Z,11.36
2023-10-23T03:46:38.616Z,11.34
2023-10-23T03:51:48.434Z,11.31
2023-10-23T03:56:58.419Z,11.29
2023-10-23T04:02:08.653Z,11.23
2023-10-23T04:07:18.288Z,11.13
2023-10-23T04:12:28.012Z,10.98
2023-10-23T04:17:37.841Z,10.87
2023-10-23T04:22:47.801Z,10.80
2023-10-23T04:27:58.238Z,10.78
2023-10-23T04:33:08.133Z,10.78
2023-10-23T04:38:18.101Z,10.81
2023-10-23T04:43:28.336Z,10.85
2023-10-23T04:48:38.072Z,10.89
2023-10-23T04:53:48.010Z,10.89
2023-10-23T04:58:58.652Z,10.90
2023-10-23T05:04:09.147Z,10.88
2023-10-23T05:09:19.016Z,10.85
2023-10-23T05:14:30.422Z,10.82
2023-10-23T05:19:40.657Z,10.78
2023-10-23T05:24:52.436Z,10.74
2023-10-23T05:30:02.847Z,10.73
2023-10-23T05:35:15.910Z,10.71
2023-10-23T05:40:25.971Z,10.70
2023-10-23T05:45:38.721Z,10.69
2023-10-23T05:50:50.966Z,10.71
2023-10-23T05:56:05.304Z,10.70
2023-10-23T06:01:15.845Z,10.68
2023-10-23T06:06:25.767Z,10.66
2023-10-23T06:11:35.482Z,10.65
2023-10-23T06:16:45.520Z,10.66
2023-10-23T06:21:55.292Z,10.69
2023-10-23T06:27:05.336Z,10.71
2023-10-23T06:32:17.229Z,10.71
2023-10-23T06:37:27.254Z,10.72
2023-10-23T06:42:37.133Z,10.74
2023-10-23T06:47:49.732Z,10.75
2023-10-23T06:53:00.137Z,10.80
2023-10-23T06:58:09.929Z,10.94
2023-10-23T07:03:20.111Z,11.11
2023-10-23T07:08:31.074Z,11.16
2023-10-23T07:13:40.961Z,11.16
2023-10-23T07:18:51.193Z,11.13
2023-10-23T07:24:01.162Z,11.16
2023-10-23T07:29:10.984Z,11.14
2023-10-23T07:34:21.120Z,11.14
2023-10-23T07:39:31.842Z,11.16
2023-10-23T07:44:42.593Z,11.13
2023-10-23T07:49:52.494Z,11.12
2023-10-23T07:55:02.494Z,11.15
2023-10-23T08:00:15.910Z,11.26
2023-10-23T08:05:25.785Z,11.44
2023-10-23T08:10:35.708Z,11.58
2023-10-23T08:15:45.872Z,11.74
2023-10-23T08:20:55.721Z,11.85
2023-10-23T08:26:06.158Z,11.82
2023-10-23T08:31:34.103Z,11.83
2023-10-23T08:36:47.659Z,11.78
2023-10-23T08:41:58.506Z,11.80
2023-10-23T08:47:09.182Z,11.85
2023-10-23T08:52:22.549Z,11.87
2023-10-23T08:57:35.291Z,11.96
2023-10-23T09:02:52.430Z,12.14
2023-10-23T09:08:02.813Z,12.27
2023-10-23T09:13:12.446Z,12.43
2023-10-23T09:18:22.269Z,12.66
2023-10-23T09:23:32.278Z,12.92
2023-10-23T09:28:41.879Z,12.94
2023-10-23T09:33:53.627Z,13.10
2023-10-23T09:39:04.365Z,13.30
2023-10-23T09:44:15.068Z,13.37
2023-10-23T09:49:25.816Z,13.44
2023-10-23T09:54:40.120Z,13.57
2023-10-23T09:59:58.440Z,13.59
2023-10-23T10:05:10.694Z,13.70
2023-10-23T10:10:22.415Z,13.85
2023-10-23T10:15:34.064Z,13.93
2023-10-23T10:20:45.696Z,13.94
2023-10-23T10:25:57.219Z,14.08
2023-10-23T10:31:07.340Z,14.18
2023-10-23T10:36:45.635Z,14.27
2023-10-23T10:41:54.186Z,14.18
2023-10-23T10:47:03.969Z,14.36
2023-10-23T10:52:32.100Z,14.59
2023-10-23T10:57:44.721Z,14.76
2023-10-23T11:02:57.142Z,14.77
2023-10-23T11:08:07.679Z,14.61
2023-10-23T11:13:20.739Z,14.39
2023-10-23T11:18:31.953Z,14.34
2023-10-23T11:23:41.514Z,14.48
2023-10-23T11:28:51.330Z,14.56
2023-10-23T11:34:11.014Z,14.54
2023-10-23T11:39:24.209Z,14.33
2023-10-23T11:44:35.194Z,14.10
2023-10-23T11:49:52.533Z,13.92
2023-10-23T11:55:02.274Z,13.91
2023-10-23T12:00:16.391Z,13.97
2023-10-23T12:05:27.360Z,14.08
2023-10-23T12:10:39.672Z,14.12
2023-10-23T12:15:49.608Z,14.13
2023-10-23T12:20:59.961Z,14.17
2023-10-23T12:26:10.534Z,14.17
2023-10-23T12:31:22.826Z,14.07
2023-10-23T12:36:34.921Z,13.98
2023-10-23T12:41:45.508Z,13.92
2023-10-23T12:46:55.423Z,13.88
2023-10-23T12:52:06.502Z,13.88
2023-10-23T12:57:16.866Z,13.93
2023-10-23T13:02:27.267Z,13.92
2023-10-23T13:07:37.392Z,13.94
2023-10-23T13:12:47.154Z,14.03
2023-10-23T13:17:57.675Z,13.99
2023-10-23T13:23:07.417Z,13.84
2023-10-23T13:28:16.894Z,13.70
2023-10-23T13:33:26.837Z,13.63
2023-10-23T13:38:36.834Z,13.54
2023-10-23T13:43:46.688Z,13.41
2023-10-23T13:48:56.424Z,13.29
2023-10-23T13:54:06.386Z,13.20
2023-10-23T13:59:16.188Z,13.14
2023-10-23T14:04:25.803Z,13.12
2023-10-23T14:09:43.590Z,13.15
2023-10-23T14:14:55.298Z,13.19
2023-10-23T14:20:05.418Z,13.22
2023-10-23T14:25:16.302Z,13.23
2023-10-23T14:30:26.020Z,13.20
2023-10-23T14:35:37.701Z,13.11
2023-10-23T14:40:56.394Z,13.02
2023-10-23T14:46:07.234Z,12.91
2023-10-23T14:51:16.992Z,12.76
2023-10-23T14:56:26.879Z,12.63
2023-10-23T15:01:36.844Z,12.48
2023-10-23T15:06:46.795Z,12.32
2023-10-23T15:11:56.796Z,12.16
2023-10-23T15:17:06.578Z,12.01
2023-10-23T15:22:16.678Z,11.87
2023-10-23T15:27:26.351Z,11.73
2023-10-23T15:32:36.800Z,11.60
2023-10-23T15:37:46.626Z,11.47
2023-10-23T15:42:56.523Z,11.34
2023-10-23T15:48:06.750Z,11.20
2023-10-23T15:53:17.708Z,11.07
2023-10-23T15:58:28.377Z,10.94
2023-10-23T16:03:39.996Z,10.80
2023-10-23T16:08:49.825Z,10.69
2023-10-23T16:13:59.707Z,10.59
2023-10-23T16:19:10.130Z,10.52
2023-10-23T16:24:19.913Z,10.45
2023-10-23T16:29:29.435Z,10.37
2023-10-23T16:34:39.366Z,10.30
2023-10-23T16:39:49.274Z,10.20
2023-10-23T16:44:59.455Z,10.08
2023-10-23T16:50:12.579Z,9.91
2023-10-23T16:55:22.938Z,9.82
2023-10-23T17:00:32.712Z,9.71
2023-10-23T17:05:42.789Z,9.61
2023-10-23T17:10:52.438Z,9.53
2023-10-23T17:16:02.526Z,9.44
2023-10-23T17:21:12.345Z,9.37
2023-10-23T17:26:22.532Z,9.37
2023-10-23T17:31:32.349Z,9.39
2023-10-23T17:36:42.225Z,9.45
2023-10-23T17:41:52.134Z,9.54
2023-10-23T17:47:02.298Z,9.52
2023-10-23T17:52:12.536Z,9.45
2023-10-23T17:57:22.279Z,9.36
2023-10-23T18:02:32.581Z,9.26
2023-10-23T18:07:42.110Z,9.20
2023-10-23T18:12:53.116Z,9.11
2023-10-23T18:18:02.921Z,9.07
2023-10-23T18:23:12.836Z,9.03
2023-10-23T18:28:22.561Z,8.91
2023-10-23T18:33:32.647Z,8.80
2023-10-23T18:38:42.755Z,8.71
2023-10-23T18:43:53.564Z,8.60
2023-10-23T18:49:03.671Z,8.47
2023-10-23T18:54:16.064Z,8.39
2023-10-23T18:59:25.806Z,8.31
2023-10-23T19:04:35.780Z,8.23
2023-10-23T19:09:45.676Z,8.11
2023-10-23T19:14:56.101Z,8.05
2023-10-23T19:20:06.763Z,8.02
2023-10-23T19:25:18.433Z,7.90
2023-10-23T19:30:28.570Z,7.83
2023-10-23T19:35:40.281Z,7.79
2023-10-23T19:40:53.392Z,7.75
2023-10-23T19:46:05.208Z,7.72
2023-10-23T19:51:19.671Z,7.72
2023-10-23T19:56:33.148Z,7.72
2023-10-23T20:01:43.380Z,7.71
2023-10-23T20:06:53.263Z,7.67
2023-10-23T20:12:03.152Z,7.65
2023-10-23T20:17:13.101Z,7.64
2023-10-23T20:22:22.888Z,7.61
2023-10-23T20:27:32.506Z,7.55
2023-10-23T20:32:42.627Z,7.47
2023-10-23T20:37:54.106Z,7.39
2023-10-23T20:43:04.866Z,7.32
2023-10-23T20:48:15.699Z,7.28
2023-10-23T20:53:25.599Z,7.26
2023-10-23T20:58:35.296Z,7.28
2023-10-23T21:03:44.940Z,7.28
2023-10-23T21:08:55.763Z,7.28
2023-10-23T21:14:05.583Z,7.26
2023-10-23T21:19:15.448Z,7.21
2023-10-23T21:24:25.307Z,7.12
2023-10-23T21:29:35.232Z,7.00
2023-10-23T21:34:44.836Z,6.89
2023-10-23T21:39:54.731Z,6.83
2023-10-23T21:45:04.834Z,6.76
2023-10-23T21:50:15.200Z,6.70
2023-10-23T21:55:27.214Z,6.61
2023-10-23T22:00:38.541Z,6.56
2023-10-23T22:05:51.836Z,6.50
2023-10-23T22:11:03.331Z,6.43
2023-10-23T22:16:13.260Z,6.43
2023-10-23T22:21:23.045Z,6.33
2023-10-23T22:26:34.146Z,6.29
2023-10-23T22:31:43.834Z,6.26
2023-10-23T22:37:58.939Z,6.22
2023-10-23T22:42:23.150Z,6.21
2023-10-23T22:47:32.799Z,6.19
2023-10-23T22:52:43.908Z,6.16
2023-10-23T22:57:59.008Z,6.07
2023-10-23T23:03:10.476Z,5.97
2023-10-23T23:08:22.253Z,5.83
2023-10-23T23:13:33.699Z,5.77
2023-10-23T23:18:44.782Z,5.70
2023-10-23T23:23:54.352Z,5.66
2023-10-23T23:29:03.892Z,5.54
2023-10-23T23:34:13.532Z,5.48
2023-10-23T23:39:24.207Z,5.43
2023-10-23T23:44:33.796Z,5.38
2023-10-23T23:49:43.709Z,5.32
2023-10-23T23:54:53.503Z,5.24
